sensor_id;sensor_type;location;lat;lon;timestamp;temperature;humidity
30973;DHT22;25423;45.624;13.790;2023-04-01T00:00:48;11.70;99.90
30973;DHT22;25423;45.624;13.790;2023-04-01T00:03:14;11.70;99.90
30973;DHT22;25423;45.624;13.790;2023-04-01T00:05:39;11.70;99.90
30973;DHT22;25423;45.624;13.790;2023-04-01T00:08:05;11.70;99.90
30973;DHT22;25423;45.624;13.790;2023-04-01T00:10:31;11.80;99.90
30973;DHT22;25423;45.624;13.790;2023-04-01T00:12:57;11.60;99.90
30973;DHT22;25423;45.624;13.790;2023-04-01T00:15:23;11.60;99.90
30973;DHT22;25423;45.624;13.790;2023-04-01T00:17:51;11.50;99.90
30973;DHT22;25423;45.624;13.790;2023-04-01T00:20:17;11.50;99.90
30973;DHT22;25423;45.624;13.790;2023-04-01T00:22:42;11.60;99.90
30973;DHT22;25423;45.624;13.790;2023-04-01T00:25:08;11.60;99.90
30973;DHT22;25423;45.624;13.790;2023-04-01T00:27:34;11.50;99.90
30973;DHT22;25423;45.624;13.790;2023-04-01T00:30:00;11.40;99.90
30973;DHT22;25423;45.624;13.790;2023-04-01T00:32:26;11.30;99.90
30973;DHT22;25423;45.624;13.790;2023-04-01T00:34:52;11.20;99.90
30973;DHT22;25423;45.624;13.790;2023-04-01T00:37:19;11.20;99.90
30973;DHT22;25423;45.624;13.790;2023-04-01T00:39:44;11.10;99.90
30973;DHT22;25423;45.624;13.790;2023-04-01T00:42:11;11.00;99.90
30973;DHT22;25423;45.624;13.790;2023-04-01T00:44:40;11.00;99.90
30973;DHT22;25423;45.624;13.790;2023-04-01T00:47:06;11.00;99.90
30973;DHT22;25423;45.624;13.790;2023-04-01T00:49:39;11.00;99.90
30973;DHT22;25423;45.624;13.790;2023-04-01T00:52:06;11.10;99.90
30973;DHT22;25423;45.624;13.790;2023-04-01T00:54:33;11.10;99.90
30973;DHT22;25423;45.624;13.790;2023-04-01T00:57:07;11.10;99.90
30973;DHT22;25423;45.624;13.790;2023-04-01T00:59:34;11.10;99.90
30973;DHT22;25423;45.624;13.790;2023-04-01T01:02:01;11.10;99.90
30973;DHT22;25423;45.624;13.790;2023-04-01T01:04:28;11.20;99.90
30973;DHT22;25423;45.624;13.790;2023-04-01T01:06:56;11.20;99.90
30973;DHT22;25423;45.624;13.790;2023-04-01T01:12:11;11.10;99.90
30973;DHT22;25423;45.624;13.790;2023-04-01T01:27:35;10.90;99.90
30973;DHT22;25423;45.624;13.790;2023-04-01T01:35:46;10.90;99.90
30973;DHT22;25423;45.624;13.790;2023-04-01T01:38:06;10.90;99.90
30973;DHT22;25423;45.624;13.790;2023-04-01T01:40:33;10.90;99.90
30973;DHT22;25423;45.624;13.790;2023-04-01T01:43:01;10.80;99.90
30973;DHT22;25423;45.624;13.790;2023-04-01T01:45:29;10.80;99.90
30973;DHT22;25423;45.624;13.790;2023-04-01T01:47:57;10.80;99.90
30973;DHT22;25423;45.624;13.790;2023-04-01T01:50:24;10.80;99.90
30973;DHT22;25423;45.624;13.790;2023-04-01T01:52:51;10.80;99.90
30973;DHT22;25423;45.624;13.790;2023-04-01T01:55:29;10.80;99.90
30973;DHT22;25423;45.624;13.790;2023-04-01T01:57:59;10.90;99.90
30973;DHT22;25423;45.624;13.790;2023-04-01T02:00:26;11.00;99.90
30973;DHT22;25423;45.624;13.790;2023-04-01T02:02:52;11.00;99.90
30973;DHT22;25423;45.624;13.790;2023-04-01T02:05:23;11.00;99.90
30973;DHT22;25423;45.624;13.790;2023-04-01T02:10:50;11.00;99.90
30973;DHT22;25423;45.624;13.790;2023-04-01T02:15:56;11.00;99.90
30973;DHT22;25423;45.624;13.790;2023-04-01T02:18:23;10.90;99.90
30973;DHT22;25423;45.624;13.790;2023-04-01T02:20:49;11.00;99.90
30973;DHT22;25423;45.624;13.790;2023-04-01T02:23:16;11.00;99.90
30973;DHT22;25423;45.624;13.790;2023-04-01T02:25:41;11.00;99.90
30973;DHT22;25423;45.624;13.790;2023-04-01T02:28:08;11.00;99.90
30973;DHT22;25423;45.624;13.790;2023-04-01T02:30:34;11.00;99.90
30973;DHT22;25423;45.624;13.790;2023-04-01T02:33:01;11.00;99.90
30973;DHT22;25423;45.624;13.790;2023-04-01T02:35:27;11.00;99.90
30973;DHT22;25423;45.624;13.790;2023-04-01T02:37:54;11.00;99.90
30973;DHT22;25423;45.624;13.790;2023-04-01T02:40:20;11.00;99.90
30973;DHT22;25423;45.624;13.790;2023-04-01T02:42:46;11.00;99.90
30973;DHT22;25423;45.624;13.790;2023-04-01T02:45:14;11.00;99.90
30973;DHT22;25423;45.624;13.790;2023-04-01T02:47:40;11.10;99.90
30973;DHT22;25423;45.624;13.790;2023-04-01T02:50:06;11.10;99.90
30973;DHT22;25423;45.624;13.790;2023-04-01T02:52:32;11.10;99.90
30973;DHT22;25423;45.624;13.790;2023-04-01T02:54:58;11.10;99.90
30973;DHT22;25423;45.624;13.790;2023-04-01T02:57:24;11.20;99.90
30973;DHT22;25423;45.624;13.790;2023-04-01T02:59:50;11.20;99.90
30973;DHT22;25423;45.624;13.790;2023-04-01T03:02:16;11.30;99.90
30973;DHT22;25423;45.624;13.790;2023-04-01T03:04:42;11.20;99.90
30973;DHT22;25423;45.624;13.790;2023-04-01T03:07:08;11.20;99.90
30973;DHT22;25423;45.624;13.790;2023-04-01T03:09:35;11.30;99.90
30973;DHT22;25423;45.624;13.790;2023-04-01T03:12:02;11.30;99.90
30973;DHT22;25423;45.624;13.790;2023-04-01T03:14:27;11.30;99.90
30973;DHT22;25423;45.624;13.790;2023-04-01T03:16:53;11.30;99.90
30973;DHT22;25423;45.624;13.790;2023-04-01T03:19:20;11.20;99.90
30973;DHT22;25423;45.624;13.790;2023-04-01T03:21:46;11.30;99.90
30973;DHT22;25423;45.624;13.790;2023-04-01T03:24:11;11.20;99.90
30973;DHT22;25423;45.624;13.790;2023-04-01T03:26:37;11.20;99.90
30973;DHT22;25423;45.624;13.790;2023-04-01T03:29:03;11.20;99.90
30973;DHT22;25423;45.624;13.790;2023-04-01T03:31:28;11.20;99.90
30973;DHT22;25423;45.624;13.790;2023-04-01T03:33:54;11.20;99.90
30973;DHT22;25423;45.624;13.790;2023-04-01T03:36:23;11.20;99.90
30973;DHT22;25423;45.624;13.790;2023-04-01T03:38:49;11.20;99.90
30973;DHT22;25423;45.624;13.790;2023-04-01T03:41:15;11.20;99.90
30973;DHT22;25423;45.624;13.790;2023-04-01T03:43:41;11.10;99.90
30973;DHT22;25423;45.624;13.790;2023-04-01T03:46:07;11.10;99.90
30973;DHT22;25423;45.624;13.790;2023-04-01T03:48:33;11.10;99.90
30973;DHT22;25423;45.624;13.790;2023-04-01T03:50:59;11.10;99.90
30973;DHT22;25423;45.624;13.790;2023-04-01T03:53:25;11.10;99.90
30973;DHT22;25423;45.624;13.790;2023-04-01T03:55:52;11.10;99.90
30973;DHT22;25423;45.624;13.790;2023-04-01T03:58:18;11.00;99.90
30973;DHT22;25423;45.624;13.790;2023-04-01T04:00:43;10.90;99.90
30973;DHT22;25423;45.624;13.790;2023-04-01T04:03:09;10.90;99.90
30973;DHT22;25423;45.624;13.790;2023-04-01T04:05:35;11.00;99.90
30973;DHT22;25423;45.624;13.790;2023-04-01T04:08:01;11.00;99.90
30973;DHT22;25423;45.624;13.790;2023-04-01T04:10:27;10.90;99.90
30973;DHT22;25423;45.624;13.790;2023-04-01T04:12:54;11.00;99.90
30973;DHT22;25423;45.624;13.790;2023-04-01T04:15:20;11.00;99.90
30973;DHT22;25423;45.624;13.790;2023-04-01T04:17:46;11.10;99.90
30973;DHT22;25423;45.624;13.790;2023-04-01T04:20:12;11.10;99.90
30973;DHT22;25423;45.624;13.790;2023-04-01T04:22:38;11.10;99.90
30973;DHT22;25423;45.624;13.790;2023-04-01T04:25:04;11.10;99.90
30973;DHT22;25423;45.624;13.790;2023-04-01T04:27:30;11.00;99.90
30973;DHT22;25423;45.624;13.790;2023-04-01T04:29:55;11.00;99.90
30973;DHT22;25423;45.624;13.790;2023-04-01T04:32:21;11.00;99.90
30973;DHT22;25423;45.624;13.790;2023-04-01T04:34:50;10.90;99.90
30973;DHT22;25423;45.624;13.790;2023-04-01T04:37:16;10.90;99.90
30973;DHT22;25423;45.624;13.790;2023-04-01T04:39:41;10.90;99.90
30973;DHT22;25423;45.624;13.790;2023-04-01T04:42:07;10.80;99.90
30973;DHT22;25423;45.624;13.790;2023-04-01T04:44:33;10.70;99.90
30973;DHT22;25423;45.624;13.790;2023-04-01T04:46:59;10.70;99.90
30973;DHT22;25423;45.624;13.790;2023-04-01T04:49:25;10.70;99.90
30973;DHT22;25423;45.624;13.790;2023-04-01T04:51:50;10.70;99.90
30973;DHT22;25423;45.624;13.790;2023-04-01T04:54:17;10.60;99.90
30973;DHT22;25423;45.624;13.790;2023-04-01T04:56:43;10.60;99.90
30973;DHT22;25423;45.624;13.790;2023-04-01T04:59:09;10.50;99.90
30973;DHT22;25423;45.624;13.790;2023-04-01T05:01:34;10.30;99.90
30973;DHT22;25423;45.624;13.790;2023-04-01T05:04:03;10.30;99.90
30973;DHT22;25423;45.624;13.790;2023-04-01T05:06:29;10.30;99.90
30973;DHT22;25423;45.624;13.790;2023-04-01T05:08:56;10.20;99.90
30973;DHT22;25423;45.624;13.790;2023-04-01T05:11:22;10.10;99.90
30973;DHT22;25423;45.624;13.790;2023-04-01T05:13:48;10.10;99.90
30973;DHT22;25423;45.624;13.790;2023-04-01T05:16:16;10.00;99.90
30973;DHT22;25423;45.624;13.790;2023-04-01T05:18:42;10.10;99.90
30973;DHT22;25423;45.624;13.790;2023-04-01T05:21:09;10.20;99.90
30973;DHT22;25423;45.624;13.790;2023-04-01T05:23:35;10.40;99.90
30973;DHT22;25423;45.624;13.790;2023-04-01T05:26:06;10.50;99.90
30973;DHT22;25423;45.624;13.790;2023-04-01T05:28:32;10.40;99.90
30973;DHT22;25423;45.624;13.790;2023-04-01T05:30:59;10.50;99.90
30973;DHT22;25423;45.624;13.790;2023-04-01T05:33:29;10.50;99.90
30973;DHT22;25423;45.624;13.790;2023-04-01T05:35:55;10.50;99.90
30973;DHT22;25423;45.624;13.790;2023-04-01T05:38:21;10.60;99.90
30973;DHT22;25423;45.624;13.790;2023-04-01T05:40:46;10.70;99.90
30973;DHT22;25423;45.624;13.790;2023-04-01T05:43:12;10.80;99.90
30973;DHT22;25423;45.624;13.790;2023-04-01T05:45:39;10.80;99.90
30973;DHT22;25423;45.624;13.790;2023-04-01T05:48:04;10.90;99.90
30973;DHT22;25423;45.624;13.790;2023-04-01T05:50:30;10.90;99.90
30973;DHT22;25423;45.624;13.790;2023-04-01T05:52:56;11.00;99.90
30973;DHT22;25423;45.624;13.790;2023-04-01T05:55:22;11.10;99.90
30973;DHT22;25423;45.624;13.790;2023-04-01T05:57:47;11.10;99.90
30973;DHT22;25423;45.624;13.790;2023-04-01T06:00:15;11.10;99.90
30973;DHT22;25423;45.624;13.790;2023-04-01T06:02:48;11.20;99.90
30973;DHT22;25423;45.624;13.790;2023-04-01T06:05:18;11.20;99.90
30973;DHT22;25423;45.624;13.790;2023-04-01T06:07:44;11.30;99.90
30973;DHT22;25423;45.624;13.790;2023-04-01T06:10:19;11.30;99.90
30973;DHT22;25423;45.624;13.790;2023-04-01T06:15:23;11.40;99.90
30973;DHT22;25423;45.624;13.790;2023-04-01T06:28:31;11.90;99.90
30973;DHT22;25423;45.624;13.790;2023-04-01T06:46:30;12.10;99.90
30973;DHT22;25423;45.624;13.790;2023-04-01T06:56:27;12.30;99.90
30973;DHT22;25423;45.624;13.790;2023-04-01T06:58:54;12.40;99.90
30973;DHT22;25423;45.624;13.790;2023-04-01T07:01:24;12.50;99.90
30973;DHT22;25423;45.624;13.790;2023-04-01T07:04:02;12.60;99.90
30973;DHT22;25423;45.624;13.790;2023-04-01T07:06:37;12.80;99.90
30973;DHT22;25423;45.624;13.790;2023-04-01T07:09:06;12.90;99.90
30973;DHT22;25423;45.624;13.790;2023-04-01T07:11:34;12.90;99.90
30973;DHT22;25423;45.624;13.790;2023-04-01T07:16:34;13.10;99.90
30973;DHT22;25423;45.624;13.790;2023-04-01T07:19:03;13.20;99.90
30973;DHT22;25423;45.624;13.790;2023-04-01T07:21:35;13.40;99.90
30973;DHT22;25423;45.624;13.790;2023-04-01T07:24:05;13.50;99.90
30973;DHT22;25423;45.624;13.790;2023-04-01T07:26:34;13.50;99.90
30973;DHT22;25423;45.624;13.790;2023-04-01T07:29:00;13.60;99.90
30973;DHT22;25423;45.624;13.790;2023-04-01T07:36:42;13.70;99.90
30973;DHT22;25423;45.624;13.790;2023-04-01T07:39:21;13.70;99.90
30973;DHT22;25423;45.624;13.790;2023-04-01T07:44:25;14.00;99.90
30973;DHT22;25423;45.624;13.790;2023-04-01T07:46:53;14.00;99.90
30973;DHT22;25423;45.624;13.790;2023-04-01T08:02:55;14.30;99.90
30973;DHT22;25423;45.624;13.790;2023-04-01T08:10:32;14.50;99.90
30973;DHT22;25423;45.624;13.790;2023-04-01T08:15:35;14.70;99.90
30973;DHT22;25423;45.624;13.790;2023-04-01T08:18:07;14.80;99.90
30973;DHT22;25423;45.624;13.790;2023-04-01T08:20:43;14.90;99.90
30973;DHT22;25423;45.624;13.790;2023-04-01T08:25:37;14.90;99.90
30973;DHT22;25423;45.624;13.790;2023-04-01T08:30:44;15.00;99.90
30973;DHT22;25423;45.624;13.790;2023-04-01T08:33:24;15.00;99.90
30973;DHT22;25423;45.624;13.790;2023-04-01T08:40:56;14.90;99.90
30973;DHT22;25423;45.624;13.790;2023-04-01T09:03:58;14.70;99.90
30973;DHT22;25423;45.624;13.790;2023-04-01T09:06:39;14.60;99.90
30973;DHT22;25423;45.624;13.790;2023-04-01T09:14:23;14.60;99.90
30973;DHT22;25423;45.624;13.790;2023-04-01T09:37:35;15.30;99.90
30973;DHT22;25423;45.624;13.790;2023-04-01T09:40:14;15.20;99.90
30973;DHT22;25423;45.624;13.790;2023-04-01T09:45:19;15.20;99.90
30973;DHT22;25423;45.624;13.790;2023-04-01T10:22:33;15.70;99.90
30973;DHT22;25423;45.624;13.790;2023-04-01T10:27:47;15.80;99.90
30973;DHT22;25423;45.624;13.790;2023-04-01T10:48:19;16.00;99.90
30973;DHT22;25423;45.624;13.790;2023-04-01T11:04:28;15.90;99.90
30973;DHT22;25423;45.624;13.790;2023-04-01T11:17:20;16.00;99.90
30973;DHT22;25423;45.624;13.790;2023-04-01T11:19:56;16.00;99.90
30973;DHT22;25423;45.624;13.790;2023-04-01T11:22:31;16.20;99.90
30973;DHT22;25423;45.624;13.790;2023-04-01T11:25:06;16.40;99.90
30973;DHT22;25423;45.624;13.790;2023-04-01T11:44:14;16.70;99.90
30973;DHT22;25423;45.624;13.790;2023-04-01T11:46:34;16.80;99.90
30973;DHT22;25423;45.624;13.790;2023-04-01T11:51:47;16.90;99.90
30973;DHT22;25423;45.624;13.790;2023-04-01T12:07:38;17.10;99.90
30973;DHT22;25423;45.624;13.790;2023-04-01T12:18:15;17.30;99.90
30973;DHT22;25423;45.624;13.790;2023-04-01T12:30:42;17.40;99.90
30973;DHT22;25423;45.624;13.790;2023-04-01T12:41:07;17.40;99.90
30973;DHT22;25423;45.624;13.790;2023-04-01T12:46:30;17.30;99.90
30973;DHT22;25423;45.624;13.790;2023-04-01T12:59:18;16.90;99.90
30973;DHT22;25423;45.624;13.790;2023-04-01T13:14:50;16.30;99.90
30973;DHT22;25423;45.624;13.790;2023-04-01T13:17:20;16.10;99.90
30973;DHT22;25423;45.624;13.790;2023-04-01T13:27:31;15.50;99.90
30973;DHT22;25423;45.624;13.790;2023-04-01T14:11:34;15.40;99.90
30973;DHT22;25423;45.624;13.790;2023-04-01T14:14:09;15.40;99.90
30973;DHT22;25423;45.624;13.790;2023-04-01T14:31:55;15.90;99.90
30973;DHT22;25423;45.624;13.790;2023-04-01T14:34:31;15.90;99.90
30973;DHT22;25423;45.624;13.790;2023-04-01T14:45:25;16.20;99.90
30973;DHT22;25423;45.624;13.790;2023-04-01T14:50:31;16.30;99.90
30973;DHT22;25423;45.624;13.790;2023-04-01T14:53:12;16.50;99.90
30973;DHT22;25423;45.624;13.790;2023-04-01T14:58:07;16.60;99.90
30973;DHT22;25423;45.624;13.790;2023-04-01T15:03:29;16.70;99.90
30973;DHT22;25423;45.624;13.790;2023-04-01T15:06:00;16.90;99.90
30973;DHT22;25423;45.624;13.790;2023-04-01T15:08:47;17.00;99.90
30973;DHT22;25423;45.624;13.790;2023-04-01T15:11:59;17.00;99.90
30973;DHT22;25423;45.624;13.790;2023-04-01T15:16:55;17.30;99.90
30973;DHT22;25423;45.624;13.790;2023-04-01T15:24:22;17.40;99.90
30973;DHT22;25423;45.624;13.790;2023-04-01T15:29:23;17.60;99.90
30973;DHT22;25423;45.624;13.790;2023-04-01T15:32:01;17.70;99.90
30973;DHT22;25423;45.624;13.790;2023-04-01T15:34:35;17.60;99.90
30973;DHT22;25423;45.624;13.790;2023-04-01T15:37:09;17.50;99.90
30973;DHT22;25423;45.624;13.790;2023-04-01T15:50:12;17.30;99.90
30973;DHT22;25423;45.624;13.790;2023-04-01T15:55:15;17.30;99.90
30973;DHT22;25423;45.624;13.790;2023-04-01T15:58:06;17.40;99.90
30973;DHT22;25423;45.624;13.790;2023-04-01T16:00:47;17.40;99.90
30973;DHT22;25423;45.624;13.790;2023-04-01T16:03:30;17.50;99.90
30973;DHT22;25423;45.624;13.790;2023-04-01T16:23:50;16.80;99.90
30973;DHT22;25423;45.624;13.790;2023-04-01T16:26:31;16.60;99.90
30973;DHT22;25423;45.624;13.790;2023-04-01T16:31:46;16.70;99.90
30973;DHT22;25423;45.624;13.790;2023-04-01T16:34:16;16.70;99.90
30973;DHT22;25423;45.624;13.790;2023-04-01T16:39:37;16.80;99.90
30973;DHT22;25423;45.624;13.790;2023-04-01T16:44:46;16.90;99.90
30973;DHT22;25423;45.624;13.790;2023-04-01T16:47:12;16.90;99.90
30973;DHT22;25423;45.624;13.790;2023-04-01T17:02:17;16.30;99.90
30973;DHT22;25423;45.624;13.790;2023-04-01T17:05:04;16.10;99.90
30973;DHT22;25423;45.624;13.790;2023-04-01T17:07:36;15.90;99.90
30973;DHT22;25423;45.624;13.790;2023-04-01T17:10:07;15.80;99.90
30973;DHT22;25423;45.624;13.790;2023-04-01T17:25:17;14.70;99.90
30973;DHT22;25423;45.624;13.790;2023-04-01T17:41:08;14.10;99.90
30973;DHT22;25423;45.624;13.790;2023-04-01T17:51:29;13.80;99.90
30973;DHT22;25423;45.624;13.790;2023-04-01T18:07:08;13.80;99.90
30973;DHT22;25423;45.624;13.790;2023-04-01T18:17:24;13.60;99.90
30973;DHT22;25423;45.624;13.790;2023-04-01T18:24:49;13.70;99.90
30973;DHT22;25423;45.624;13.790;2023-04-01T18:27:28;13.90;99.90
30973;DHT22;25423;45.624;13.790;2023-04-01T18:29:55;13.80;99.90
30973;DHT22;25423;45.624;13.790;2023-04-01T18:35:15;13.50;99.90
30973;DHT22;25423;45.624;13.790;2023-04-01T18:37:46;13.50;99.90
30973;DHT22;25423;45.624;13.790;2023-04-01T18:45:23;13.50;99.90
30973;DHT22;25423;45.624;13.790;2023-04-01T18:48:13;13.60;99.90
30973;DHT22;25423;45.624;13.790;2023-04-01T18:55:49;13.40;99.90
30973;DHT22;25423;45.624;13.790;2023-04-01T19:00:45;13.20;99.90
30973;DHT22;25423;45.624;13.790;2023-04-01T19:03:21;13.20;99.90
30973;DHT22;25423;45.624;13.790;2023-04-01T19:05:50;13.20;99.90
30973;DHT22;25423;45.624;13.790;2023-04-01T19:21:04;12.90;99.90
30973;DHT22;25423;45.624;13.790;2023-04-01T19:26:19;12.70;99.90
30973;DHT22;25423;45.624;13.790;2023-04-01T19:29:34;12.70;99.90
30973;DHT22;25423;45.624;13.790;2023-04-01T19:37:05;12.50;99.90
30973;DHT22;25423;45.624;13.790;2023-04-01T19:44:50;12.60;99.90
30973;DHT22;25423;45.624;13.790;2023-04-01T19:58:14;12.70;99.90
30973;DHT22;25423;45.624;13.790;2023-04-01T20:00:46;12.60;99.90
30973;DHT22;25423;45.624;13.790;2023-04-01T20:15:39;12.60;99.90
30973;DHT22;25423;45.624;13.790;2023-04-01T20:18:13;12.60;99.90
30973;DHT22;25423;45.624;13.790;2023-04-01T20:20:40;12.60;99.90
30973;DHT22;25423;45.624;13.790;2023-04-01T20:23:21;12.60;99.90
30973;DHT22;25423;45.624;13.790;2023-04-01T20:25:54;12.70;99.90
30973;DHT22;25423;45.624;13.790;2023-04-01T20:28:32;12.60;99.90
30973;DHT22;25423;45.624;13.790;2023-04-01T20:41:05;12.30;99.90
30973;DHT22;25423;45.624;13.790;2023-04-01T20:43:48;12.20;99.90
30973;DHT22;25423;45.624;13.790;2023-04-01T20:46:19;12.20;99.90
30973;DHT22;25423;45.624;13.790;2023-04-01T20:49:00;12.20;99.90
30973;DHT22;25423;45.624;13.790;2023-04-01T20:51:35;12.20;99.90
30973;DHT22;25423;45.624;13.790;2023-04-01T21:11:59;12.00;99.90
30973;DHT22;25423;45.624;13.790;2023-04-01T21:22:33;12.10;99.90
30973;DHT22;25423;45.624;13.790;2023-04-01T21:27:31;12.00;99.90
30973;DHT22;25423;45.624;13.790;2023-04-01T21:55:50;11.70;99.90
30973;DHT22;25423;45.624;13.790;2023-04-01T22:13:50;11.70;99.90
30973;DHT22;25423;45.624;13.790;2023-04-01T22:16:43;11.70;99.90
30973;DHT22;25423;45.624;13.790;2023-04-01T22:19:15;11.60;99.90
30973;DHT22;25423;45.624;13.790;2023-04-01T22:21:47;11.60;99.90
30973;DHT22;25423;45.624;13.790;2023-04-01T22:24:20;11.60;99.90
30973;DHT22;25423;45.624;13.790;2023-04-01T22:26:53;11.60;99.90
30973;DHT22;25423;45.624;13.790;2023-04-01T22:35:09;11.60;99.90
30973;DHT22;25423;45.624;13.790;2023-04-01T22:43:08;11.60;99.90
30973;DHT22;25423;45.624;13.790;2023-04-01T22:55:56;11.40;99.90
30973;DHT22;25423;45.624;13.790;2023-04-01T22:58:32;11.40;99.90
30973;DHT22;25423;45.624;13.790;2023-04-01T23:01:01;11.40;99.90
30973;DHT22;25423;45.624;13.790;2023-04-01T23:03:29;11.50;99.90
30973;DHT22;25423;45.624;13.790;2023-04-01T23:05:57;11.40;99.90
30973;DHT22;25423;45.624;13.790;2023-04-01T23:11:29;11.60;99.90
30973;DHT22;25423;45.624;13.790;2023-04-01T23:14:07;11.60;99.90
30973;DHT22;25423;45.624;13.790;2023-04-01T23:16:45;11.60;99.90
30973;DHT22;25423;45.624;13.790;2023-04-01T23:19:17;11.50;99.90
30973;DHT22;25423;45.624;13.790;2023-04-01T23:21:48;11.50;99.90
30973;DHT22;25423;45.624;13.790;2023-04-01T23:29:23;11.60;99.90
30973;DHT22;25423;45.624;13.790;2023-04-01T23:31:58;11.70;99.90
30973;DHT22;25423;45.624;13.790;2023-04-01T23:34:28;11.70;99.90
30973;DHT22;25423;45.624;13.790;2023-04-01T23:37:12;11.70;99.90
30973;DHT22;25423;45.624;13.790;2023-04-01T23:39:41;11.70;99.90
30973;DHT22;25423;45.624;13.790;2023-04-01T23:42:18;11.60;99.90
30973;DHT22;25423;45.624;13.790;2023-04-01T23:44:55;11.70;99.90
30973;DHT22;25423;45.624;13.790;2023-04-01T23:47:24;11.70;99.90
30973;DHT22;25423;45.624;13.790;2023-04-01T23:49:51;11.80;99.90
30973;DHT22;25423;45.624;13.790;2023-04-01T23:52:25;11.90;99.90
30973;DHT22;25423;45.624;13.790;2023-04-01T23:54:52;12.00;99.90
30973;DHT22;25423;45.624;13.790;2023-04-01T23:57:29;12.00;99.90
